Time;durP1;ratioP1;P1;durP2;ratioP2;P2;SDS_P1;SDS_P2;PMS_P1;PMS_P2;Temp;Humidity;BMP_temperature;BMP_pressure;BME280_temperature;BME280_humidity;BME280_pressure;Samples;Min_cycle;Max_cycle;Signal;HPM_P1;HPM_P2
2022/08/29 00:00:14;;;;;;;;;;;18.10;61.80;;;;;;5089991;28;20107;-78
2022/08/29 00:02:40;;;;;;;;;;;18.10;61.80;;;;;;5108087;28;19912;-78
2022/08/29 00:05:06;;;;;;;;;;;18.20;61.80;;;;;;5108442;28;19915;-78
2022/08/29 00:07:32;;;;;;;;;;;18.20;61.80;;;;;;5089963;28;19957;-78
2022/08/29 00:09:58;;;;;;;;;;;18.20;61.80;;;;;;5108335;28;19916;-78
2022/08/29 00:12:23;;;;;;;;;;;18.20;61.80;;;;;;5108306;28;20291;-78
2022/08/29 00:14:49;;;;;;;;;;;18.20;61.70;;;;;;5089797;28;19915;-78
2022/08/29 00:17:14;;;;;;;;;;;18.20;61.70;;;;;;5108272;28;19916;-78
2022/08/29 00:19:40;;;;;;;;;;;18.20;62.30;;;;;;5089715;28;20397;-78
2022/08/29 00:22:05;;;;;;;;;;;18.20;61.80;;;;;;5089707;28;19916;-78
2022/08/29 00:24:31;;;;;;;;;;;18.20;61.80;;;;;;5092701;28;19912;-78
2022/08/29 00:26:59;;;;;;;;;;;18.20;61.80;;;;;;5093675;28;19915;-79
2022/08/29 00:29:25;;;;;;;;;;;18.20;61.80;;;;;;5093876;28;19912;-79
2022/08/29 00:31:51;;;;;;;;;;;18.20;61.70;;;;;;5093676;28;20299;-79
2022/08/29 00:34:16;;;;;;;;;;;18.20;61.70;;;;;;5093659;28;19922;-78
2022/08/29 00:36:42;;;;;;;;;;;18.20;61.80;;;;;;5076643;28;19916;-78
2022/08/29 00:39:07;;;;;;;;;;;18.20;61.70;;;;;;5111605;28;19912;-78
2022/08/29 00:41:33;;;;;;;;;;;18.20;61.80;;;;;;5111357;28;20349;-78
2022/08/29 00:43:59;;;;;;;;;;;18.10;61.80;;;;;;5111485;28;20392;-78
2022/08/29 00:46:33;;;;;;;;;;;18.10;61.80;;;;;;5111472;28;19919;-79
2022/08/29 00:49:01;;;;;;;;;;;18.10;61.90;;;;;;5111473;28;20010;-78
2022/08/29 00:51:27;;;;;;;;;;;18.10;61.90;;;;;;5111481;28;20442;-78
2022/08/29 00:53:56;;;;;;;;;;;18.10;61.90;;;;;;5093178;28;19994;-78
2022/08/29 00:56:22;;;;;;;;;;;18.00;61.80;;;;;;5093017;28;20284;-78
2022/08/29 00:59:08;;;;;;;;;;;18.10;61.90;;;;;;5111603;28;19911;-78
2022/08/29 01:01:34;;;;;;;;;;;18.00;61.80;;;;;;5078713;28;19922;-78
2022/08/29 01:04:00;;;;;;;;;;;18.00;61.90;;;;;;5111456;28;20376;-78
2022/08/29 01:06:26;;;;;;;;;;;18.00;62.00;;;;;;5111415;28;20674;-78
2022/08/29 01:08:52;;;;;;;;;;;18.00;62.00;;;;;;5111424;28;19950;-78
2022/08/29 01:14:03;;;;;;;;;;;17.90;62.00;;;;;;5096177;28;19969;-78
2022/08/29 01:16:29;;;;;;;;;;;17.90;62.10;;;;;;5092627;28;19962;-78
2022/08/29 01:18:56;;;;;;;;;;;17.90;62.10;;;;;;5110822;28;20371;-78
2022/08/29 01:21:28;;;;;;;;;;;17.90;62.10;;;;;;5092527;28;20185;-78
2022/08/29 01:23:54;;;;;;;;;;;17.90;62.10;;;;;;5110972;28;19911;-78
2022/08/29 01:26:20;;;;;;;;;;;17.90;62.10;;;;;;5110852;28;19952;-78
2022/08/29 01:28:48;;;;;;;;;;;17.90;62.10;;;;;;5092478;28;20041;-78
2022/08/29 01:31:21;;;;;;;;;;;17.90;62.20;;;;;;5092604;28;19908;-78
2022/08/29 01:33:47;;;;;;;;;;;17.90;62.20;;;;;;5110587;28;19998;-78
2022/08/29 01:36:14;;;;;;;;;;;17.90;62.20;;;;;;5110430;28;20128;-78
2022/08/29 01:38:40;;;;;;;;;;;17.90;62.10;;;;;;5092262;28;20367;-78
2022/08/29 01:41:06;;;;;;;;;;;17.90;62.10;;;;;;5088489;28;19974;-78
2022/08/29 01:43:37;;;;;;;;;;;17.90;62.20;;;;;;5090341;28;19911;-77
2022/08/29 01:46:02;;;;;;;;;;;17.90;62.10;;;;;;5088726;28;19912;-78
2022/08/29 01:48:28;;;;;;;;;;;17.90;62.20;;;;;;5089749;28;19916;-78
2022/08/29 01:50:55;;;;;;;;;;;17.90;62.20;;;;;;5089962;28;20006;-78
2022/08/29 01:53:20;;;;;;;;;;;17.80;62.10;;;;;;5089943;28;19915;-78
2022/08/29 01:55:46;;;;;;;;;;;17.80;62.20;;;;;;5088484;28;19920;-78
2022/08/29 01:58:12;;;;;;;;;;;17.80;62.20;;;;;;5088399;28;19928;-78
2022/08/29 02:00:38;;;;;;;;;;;17.80;62.20;;;;;;5088436;28;19923;-78
2022/08/29 02:03:04;;;;;;;;;;;17.80;62.20;;;;;;5088522;28;19916;-78
2022/08/29 02:05:29;;;;;;;;;;;17.80;62.20;;;;;;5089746;28;19962;-78
2022/08/29 02:07:55;;;;;;;;;;;17.80;62.30;;;;;;5089778;28;19912;-78
2022/08/29 02:10:22;;;;;;;;;;;17.80;62.20;;;;;;5088321;28;19923;-78
2022/08/29 02:12:47;;;;;;;;;;;17.80;62.30;;;;;;5089817;28;19915;-78
2022/08/29 02:15:14;;;;;;;;;;;17.80;62.30;;;;;;5089633;28;19912;-78
2022/08/29 02:17:40;;;;;;;;;;;17.80;62.30;;;;;;5088000;28;19912;-78
2022/08/29 02:20:07;;;;;;;;;;;17.80;62.30;;;;;;5088235;28;19918;-78
2022/08/29 02:22:36;;;;;;;;;;;17.70;62.30;;;;;;5089540;28;20347;-78
2022/08/29 02:25:40;;;;;;;;;;;17.70;62.30;;;;;;5089320;28;19912;-78
2022/08/29 02:27:50;;;;;;;;;;;17.70;62.40;;;;;;5089096;28;19908;-78
2022/08/29 02:30:16;;;;;;;;;;;17.70;62.30;;;;;;5089202;28;20356;-78
2022/08/29 02:32:41;;;;;;;;;;;17.70;62.30;;;;;;5088042;28;19916;-78
2022/08/29 02:35:07;;;;;;;;;;;17.70;62.30;;;;;;5070972;28;19912;-78
2022/08/29 02:37:32;;;;;;;;;;;17.70;62.40;;;;;;5087764;28;19912;-78
2022/08/29 02:39:58;;;;;;;;;;;17.70;62.40;;;;;;5087615;28;20292;-78
2022/08/29 02:42:23;;;;;;;;;;;17.70;62.40;;;;;;5089003;28;19975;-78
2022/08/29 02:44:49;;;;;;;;;;;17.70;62.40;;;;;;5088891;28;19930;-78
2022/08/29 02:47:15;;;;;;;;;;;17.80;62.40;;;;;;5086976;28;19912;-78
2022/08/29 02:49:41;;;;;;;;;;;17.80;62.30;;;;;;5087427;28;20006;-77
2022/08/29 02:52:07;;;;;;;;;;;17.80;62.30;;;;;;5088839;28;19920;-78
2022/08/29 02:54:33;;;;;;;;;;;17.80;62.30;;;;;;5088814;28;19955;-78
2022/08/29 02:56:59;;;;;;;;;;;17.80;62.30;;;;;;5087451;28;19912;-78
2022/08/29 02:59:24;;;;;;;;;;;17.80;62.30;;;;;;5087323;28;19912;-78
2022/08/29 03:01:52;;;;;;;;;;;17.80;62.30;;;;;;5087289;28;19927;-78
2022/08/29 03:04:18;;;;;;;;;;;17.80;62.40;;;;;;5087300;28;19912;-78
2022/08/29 03:06:43;;;;;;;;;;;17.80;62.40;;;;;;5088615;28;19908;-78
2022/08/29 03:09:09;;;;;;;;;;;17.70;62.40;;;;;;5088493;28;19946;-78
2022/08/29 03:11:34;;;;;;;;;;;17.70;62.40;;;;;;5087105;28;20261;-78
2022/08/29 03:14:00;;;;;;;;;;;17.60;62.40;;;;;;5087127;28;19911;-78
2022/08/29 03:16:26;;;;;;;;;;;17.70;62.50;;;;;;5088437;28;19908;-78
2022/08/29 03:18:51;;;;;;;;;;;17.60;62.50;;;;;;5088298;28;19974;-78
2022/08/29 03:21:19;;;;;;;;;;;17.60;62.50;;;;;;5088409;28;20381;-78
2022/08/29 03:23:44;;;;;;;;;;;17.60;62.50;;;;;;5088444;28;20004;-78
2022/08/29 03:26:10;;;;;;;;;;;17.50;62.50;;;;;;5087360;28;20070;-78
2022/08/29 03:28:35;;;;;;;;;;;17.50;62.50;;;;;;5086934;28;19912;-78
2022/08/29 03:31:01;;;;;;;;;;;17.50;62.50;;;;;;5087025;28;19912;-78
2022/08/29 03:33:26;;;;;;;;;;;17.50;62.50;;;;;;5086913;28;19912;-78
2022/08/29 03:35:52;;;;;;;;;;;17.50;62.60;;;;;;5087082;28;20004;-78
2022/08/29 03:38:17;;;;;;;;;;;17.50;62.60;;;;;;5086807;28;19912;-78
2022/08/29 03:40:43;;;;;;;;;;;17.50;62.60;;;;;;5069719;28;20297;-78
2022/08/29 03:43:09;;;;;;;;;;;17.50;62.60;;;;;;5086955;28;19912;-78
2022/08/29 03:45:34;;;;;;;;;;;17.50;62.60;;;;;;5070354;28;19951;-78
2022/08/29 03:48:00;;;;;;;;;;;17.50;62.50;;;;;;5087973;28;19995;-78
2022/08/29 03:50:26;;;;;;;;;;;17.50;62.50;;;;;;5086813;28;19916;-78
2022/08/29 03:52:51;;;;;;;;;;;17.50;62.50;;;;;;5086739;28;19919;-78
2022/08/29 03:55:18;;;;;;;;;;;17.50;62.40;;;;;;5086597;28;20451;-78
2022/08/29 03:57:44;;;;;;;;;;;17.50;62.30;;;;;;5089380;28;20390;-78
2022/08/29 04:00:15;;;;;;;;;;;17.50;62.30;;;;;;5090745;28;19916;-78
2022/08/29 04:02:41;;;;;;;;;;;17.50;62.40;;;;;;5090849;28;19912;-78
2022/08/29 04:05:07;;;;;;;;;;;17.40;62.40;;;;;;5092284;28;19916;-78
2022/08/29 04:07:40;;;;;;;;;;;17.30;62.50;;;;;;5090881;28;20390;-78
2022/08/29 04:10:07;;;;;;;;;;;17.30;62.60;;;;;;5091987;28;20313;-78
2022/08/29 04:12:33;;;;;;;;;;;17.30;62.60;;;;;;5091858;28;19912;-78
2022/08/29 04:14:58;;;;;;;;;;;17.30;62.60;;;;;;5090651;28;19916;-78
2022/08/29 04:17:24;;;;;;;;;;;17.30;62.60;;;;;;5090597;28;19908;-78
2022/08/29 04:19:50;;;;;;;;;;;17.30;62.60;;;;;;5090499;28;19937;-78
2022/08/29 04:22:15;;;;;;;;;;;17.30;62.50;;;;;;5091794;28;19938;-78
2022/08/29 04:24:41;;;;;;;;;;;17.30;62.50;;;;;;5090578;28;19912;-78
2022/08/29 04:27:06;;;;;;;;;;;17.30;62.50;;;;;;5090493;28;19912;-78
2022/08/29 04:29:33;;;;;;;;;;;17.30;62.60;;;;;;5091518;28;20385;-78
2022/08/29 04:31:58;;;;;;;;;;;17.30;62.50;;;;;;5091563;28;19924;-78
2022/08/29 04:34:24;;;;;;;;;;;17.30;62.60;;;;;;5090287;28;20275;-78
2022/08/29 04:36:49;;;;;;;;;;;17.30;62.60;;;;;;5091448;28;20014;-78
2022/08/29 04:39:15;;;;;;;;;;;17.20;62.60;;;;;;5091330;28;19915;-78
2022/08/29 04:41:41;;;;;;;;;;;17.20;62.70;;;;;;5072940;28;20498;-78
2022/08/29 04:44:07;;;;;;;;;;;17.20;62.60;;;;;;5091370;28;19916;-78
2022/08/29 04:46:33;;;;;;;;;;;17.30;62.60;;;;;;5091198;28;19908;-78
2022/08/29 04:48:58;;;;;;;;;;;17.30;62.70;;;;;;5089769;28;20302;-77
2022/08/29 04:51:24;;;;;;;;;;;17.30;62.60;;;;;;5091184;28;19908;-78
2022/08/29 04:53:50;;;;;;;;;;;17.30;62.60;;;;;;5089973;28;19947;-78
2022/08/29 04:56:15;;;;;;;;;;;17.40;62.50;;;;;;5090943;28;20387;-77
2022/08/29 04:58:42;;;;;;;;;;;17.40;62.50;;;;;;5090832;28;19912;-78
2022/08/29 05:01:10;;;;;;;;;;;17.40;62.40;;;;;;5090956;28;19927;-78
2022/08/29 05:03:36;;;;;;;;;;;17.40;62.50;;;;;;5090904;28;20444;-78
2022/08/29 05:06:05;;;;;;;;;;;17.50;62.50;;;;;;5089751;28;20015;-78
2022/08/29 05:08:32;;;;;;;;;;;17.40;62.40;;;;;;5090712;28;19915;-78
2022/08/29 05:10:57;;;;;;;;;;;17.50;62.40;;;;;;5090365;28;20361;-78
2022/08/29 05:13:23;;;;;;;;;;;17.50;62.40;;;;;;5089465;28;19957;-78
2022/08/29 05:15:48;;;;;;;;;;;17.50;62.30;;;;;;5072573;28;19923;-78
2022/08/29 05:18:15;;;;;;;;;;;17.50;62.30;;;;;;5089319;28;19953;-78
2022/08/29 05:20:42;;;;;;;;;;;17.50;62.40;;;;;;5089378;28;19916;-78
2022/08/29 05:23:09;;;;;;;;;;;17.50;62.40;;;;;;5090394;28;19912;-78
2022/08/29 05:25:35;;;;;;;;;;;17.50;62.50;;;;;;5089101;28;19973;-76
2022/08/29 05:28:01;;;;;;;;;;;17.50;62.60;;;;;;5090249;28;19912;-78
2022/08/29 05:30:27;;;;;;;;;;;17.50;62.60;;;;;;5090387;28;20274;-78
2022/08/29 05:32:53;;;;;;;;;;;17.50;62.60;;;;;;5089406;28;20388;-78
2022/08/29 05:35:20;;;;;;;;;;;17.50;62.60;;;;;;5089270;28;20335;-78
2022/08/29 05:37:45;;;;;;;;;;;17.50;62.50;;;;;;5090078;28;19961;-78
2022/08/29 05:40:11;;;;;;;;;;;17.50;62.40;;;;;;5090168;28;19912;-78
2022/08/29 05:42:36;;;;;;;;;;;17.60;62.50;;;;;;5110448;28;20403;-79
2022/08/29 05:45:03;;;;;;;;;;;17.60;62.50;;;;;;5092258;28;19916;-78
2022/08/29 05:47:30;;;;;;;;;;;17.50;62.50;;;;;;5092150;28;19912;-78
2022/08/29 05:49:55;;;;;;;;;;;17.60;62.50;;;;;;5092074;28;19915;-78
2022/08/29 05:52:21;;;;;;;;;;;17.60;62.60;;;;;;5110301;28;19912;-77
2022/08/29 05:54:47;;;;;;;;;;;17.60;62.60;;;;;;5109950;28;20291;-78
2022/08/29 05:57:14;;;;;;;;;;;17.60;62.70;;;;;;5092105;28;20398;-76
2022/08/29 05:59:39;;;;;;;;;;;17.70;62.60;;;;;;5091633;28;19915;-78
2022/08/29 06:02:06;;;;;;;;;;;17.70;62.60;;;;;;5091631;28;19937;-79
2022/08/29 06:04:32;;;;;;;;;;;17.80;62.50;;;;;;5110703;28;19961;-78
2022/08/29 06:06:58;;;;;;;;;;;17.90;62.50;;;;;;5111136;28;19960;-78
2022/08/29 06:09:24;;;;;;;;;;;17.90;62.50;;;;;;5093073;28;19912;-79
2022/08/29 06:11:51;;;;;;;;;;;18.00;62.40;;;;;;5111320;28;19915;-76
2022/08/29 06:14:18;;;;;;;;;;;18.00;62.40;;;;;;5109799;28;19915;-78
2022/08/29 06:16:44;;;;;;;;;;;18.10;62.90;;;;;;5091626;28;20381;-78
2022/08/29 06:19:10;;;;;;;;;;;18.20;62.30;;;;;;5091437;28;19915;-78
2022/08/29 06:21:36;;;;;;;;;;;18.20;62.30;;;;;;5090136;28;19960;-79
2022/08/29 06:24:02;;;;;;;;;;;18.30;62.30;;;;;;5074520;28;19916;-78
2022/08/29 06:26:27;;;;;;;;;;;18.30;62.30;;;;;;5109568;28;20170;-78
2022/08/29 06:28:53;;;;;;;;;;;18.40;62.20;;;;;;5109314;28;19908;-78
2022/08/29 06:31:25;;;;;;;;;;;18.40;62.30;;;;;;5091040;28;19922;-78
2022/08/29 06:33:52;;;;;;;;;;;18.40;62.40;;;;;;5109223;28;19953;-78
2022/08/29 06:36:17;;;;;;;;;;;18.50;62.50;;;;;;5109039;28;20358;-78
2022/08/29 06:38:43;;;;;;;;;;;18.50;62.60;;;;;;5090481;28;19919;-78
2022/08/29 06:41:13;;;;;;;;;;;18.50;62.60;;;;;;5090479;28;20417;-78
2022/08/29 06:43:39;;;;;;;;;;;18.50;62.70;;;;;;5091055;28;19918;-79
2022/08/29 06:46:05;;;;;;;;;;;18.60;62.70;;;;;;5109617;28;19915;-78
2022/08/29 06:48:30;;;;;;;;;;;18.70;62.70;;;;;;5109089;28;19916;-78
2022/08/29 06:50:56;;;;;;;;;;;18.70;62.70;;;;;;5090726;28;19919;-78
2022/08/29 06:53:22;;;;;;;;;;;18.80;62.70;;;;;;5090391;28;20023;-79
2022/08/29 06:55:47;;;;;;;;;;;18.90;62.80;;;;;;5109014;28;19954;-78
2022/08/29 06:58:13;;;;;;;;;;;19.00;62.80;;;;;;5108458;28;19912;-78
2022/08/29 07:00:39;;;;;;;;;;;19.10;62.80;;;;;;5090425;28;19916;-79
2022/08/29 07:03:05;;;;;;;;;;;19.20;62.70;;;;;;5108869;28;20283;-79
2022/08/29 07:05:31;;;;;;;;;;;19.40;62.70;;;;;;5090003;28;19908;-79
2022/08/29 07:07:56;;;;;;;;;;;19.70;63.00;;;;;;5090265;28;20287;-79
2022/08/29 07:10:22;;;;;;;;;;;20.10;62.70;;;;;;5108727;28;19919;-79
2022/08/29 07:12:48;;;;;;;;;;;20.40;62.50;;;;;;5108221;28;19916;-79
2022/08/29 07:15:13;;;;;;;;;;;20.70;62.50;;;;;;5073304;28;19912;-79
2022/08/29 07:17:39;;;;;;;;;;;20.90;62.10;;;;;;5090495;28;19922;-78
2022/08/29 07:20:05;;;;;;;;;;;20.90;62.00;;;;;;5090425;28;19921;-78
2022/08/29 07:22:32;;;;;;;;;;;21.00;62.20;;;;;;5108325;28;19964;-78
2022/08/29 07:24:58;;;;;;;;;;;21.20;62.20;;;;;;5089793;28;20006;-78
2022/08/29 07:27:24;;;;;;;;;;;21.50;62.40;;;;;;5108559;28;20481;-76
2022/08/29 07:29:49;;;;;;;;;;;21.80;62.50;;;;;;5108260;28;19912;-78
2022/08/29 07:32:15;;;;;;;;;;;22.50;63.00;;;;;;5108000;28;19999;-78
2022/08/29 07:34:40;;;;;;;;;;;23.30;62.40;;;;;;5108037;28;20283;-78
2022/08/29 07:37:06;;;;;;;;;;;23.70;61.80;;;;;;5089829;28;19915;-78
2022/08/29 07:39:32;;;;;;;;;;;23.80;61.60;;;;;;5108227;28;19911;-78
2022/08/29 07:41:58;;;;;;;;;;;24.00;61.70;;;;;;5107344;28;19927;-78
2022/08/29 07:44:25;;;;;;;;;;;24.10;61.60;;;;;;5107016;28;20369;-78
2022/08/29 07:46:55;;;;;;;;;;;24.50;62.00;;;;;;5108144;28;19912;-79
2022/08/29 07:49:21;;;;;;;;;;;25.20;61.60;;;;;;5107819;28;19989;-79
2022/08/29 07:51:46;;;;;;;;;;;25.50;61.10;;;;;;5107823;28;20191;-79
2022/08/29 07:54:15;;;;;;;;;;;25.80;61.30;;;;;;5107859;28;19912;-78
2022/08/29 07:56:41;;;;;;;;;;;26.30;61.90;;;;;;5107130;28;19967;-79
2022/08/29 07:59:07;;;;;;;;;;;27.00;62.20;;;;;;5107895;28;19974;-78
2022/08/29 08:01:32;;;;;;;;;;;27.90;62.20;;;;;;5107575;28;20016;-78
2022/08/29 08:03:58;;;;;;;;;;;28.80;62.10;;;;;;5089564;28;20351;-79
2022/08/29 08:06:24;;;;;;;;;;;29.60;62.00;;;;;;5107806;28;20271;-78
2022/08/29 08:08:50;;;;;;;;;;;30.30;61.70;;;;;;5107660;28;19923;-79
2022/08/29 08:11:17;;;;;;;;;;;31.00;61.40;;;;;;5107848;28;19908;-79
2022/08/29 08:13:43;;;;;;;;;;;31.50;61.20;;;;;;5107545;28;19919;-79
2022/08/29 08:16:10;;;;;;;;;;;31.90;61.20;;;;;;5107484;28;20381;-78
2022/08/29 08:18:37;;;;;;;;;;;31.90;61.80;;;;;;5107150;28;19931;-78
2022/08/29 08:21:03;;;;;;;;;;;31.60;61.50;;;;;;5107197;28;20279;-78
2022/08/29 08:23:29;;;;;;;;;;;31.50;62.10;;;;;;5089120;28;19919;-77
2022/08/29 08:25:54;;;;;;;;;;;31.30;62.70;;;;;;5107533;28;19911;-78
2022/08/29 08:28:20;;;;;;;;;;;31.60;62.80;;;;;;5107739;28;19912;-78
2022/08/29 08:30:45;;;;;;;;;;;31.90;62.70;;;;;;5089018;28;20407;-78
2022/08/29 08:33:11;;;;;;;;;;;31.90;62.10;;;;;;5107449;28;19908;-78
2022/08/29 08:35:37;;;;;;;;;;;31.40;61.70;;;;;;5109197;28;19919;-80
2022/08/29 08:38:04;;;;;;;;;;;30.80;62.10;;;;;;5109162;28;19915;-79
2022/08/29 08:40:30;;;;;;;;;;;30.70;62.80;;;;;;5090906;28;19920;-79
2022/08/29 08:42:59;;;;;;;;;;;30.80;63.00;;;;;;5109189;28;19972;-79
2022/08/29 08:45:35;;;;;;;;;;;31.10;63.10;;;;;;5092798;28;19915;-79
2022/08/29 08:48:09;;;;;;;;;;;31.30;63.20;;;;;;5113209;28;19908;-77
2022/08/29 08:50:44;;;;;;;;;;;31.60;63.50;;;;;;5112708;28;20018;-80
2022/08/29 08:53:13;;;;;;;;;;;32.10;63.50;;;;;;5112346;28;19908;-76
2022/08/29 08:55:43;;;;;;;;;;;32.40;63.10;;;;;;5112177;28;19916;-76
2022/08/29 08:58:09;;;;;;;;;;;32.60;63.30;;;;;;5112134;28;19917;-79
2022/08/29 09:00:40;;;;;;;;;;;32.80;63.10;;;;;;5110553;28;19908;-77
2022/08/29 09:03:15;;;;;;;;;;;32.70;63.60;;;;;;5111958;28;19911;-78
2022/08/29 09:05:53;;;;;;;;;;;33.00;63.80;;;;;;5075578;28;19909;-79
2022/08/29 09:08:35;;;;;;;;;;;33.40;63.60;;;;;;5112151;28;19922;-79
2022/08/29 09:11:02;;;;;;;;;;;33.80;63.40;;;;;;5093332;28;19938;-78
2022/08/29 09:13:42;;;;;;;;;;;33.90;63.10;;;;;;5094660;28;19916;-78
2022/08/29 09:16:22;;;;;;;;;;;33.90;63.70;;;;;;5074180;28;19912;-78
2022/08/29 09:18:47;;;;;;;;;;;34.30;64.00;;;;;;5084033;28;20279;-78
2022/08/29 09:21:15;;;;;;;;;;;34.80;63.70;;;;;;5072230;28;19912;-78
2022/08/29 09:23:45;;;;;;;;;;;35.00;63.50;;;;;;5107510;28;19911;-78
2022/08/29 09:26:11;;;;;;;;;;;35.20;63.30;;;;;;5094058;28;20267;-79
2022/08/29 09:28:37;;;;;;;;;;;35.30;63.40;;;;;;5105534;28;19961;-79
2022/08/29 09:31:15;;;;;;;;;;;35.30;63.80;;;;;;5099527;28;20374;-79
2022/08/29 09:33:42;;;;;;;;;;;35.50;64.10;;;;;;5112000;28;20558;-79
2022/08/29 09:36:11;;;;;;;;;;;35.80;63.70;;;;;;5112556;28;20344;-79
2022/08/29 09:38:37;;;;;;;;;;;35.80;64.00;;;;;;5094094;28;19931;-79
2022/08/29 09:41:06;;;;;;;;;;;35.80;63.60;;;;;;5111546;28;20395;-68
2022/08/29 09:43:38;;;;;;;;;;;35.80;63.50;;;;;;5110103;28;19913;-79
2022/08/29 09:46:04;;;;;;;;;;;35.80;63.70;;;;;;5111686;28;19915;-78
2022/08/29 09:48:30;;;;;;;;;;;35.70;63.80;;;;;;5088138;28;19947;-79
2022/08/29 09:51:10;;;;;;;;;;;35.80;64.20;;;;;;5093737;28;20003;-79
2022/08/29 09:53:35;;;;;;;;;;;35.90;64.20;;;;;;5084591;28;19908;-79
2022/08/29 09:56:06;;;;;;;;;;;35.80;64.20;;;;;;5111966;28;19913;-79
2022/08/29 09:58:36;;;;;;;;;;;36.00;64.40;;;;;;5111815;28;19912;-79
2022/08/29 10:01:01;;;;;;;;;;;36.10;64.50;;;;;;5111757;28;20064;-80
2022/08/29 10:03:29;;;;;;;;;;;36.50;64.70;;;;;;5083167;28;20384;-78
2022/08/29 10:06:11;;;;;;;;;;;36.60;64.50;;;;;;5105065;28;19958;-79
2022/08/29 10:08:37;;;;;;;;;;;36.50;64.60;;;;;;5083029;28;20379;-81
2022/08/29 10:11:07;;;;;;;;;;;36.50;65.00;;;;;;5102867;28;19920;-78
2022/08/29 10:13:36;;;;;;;;;;;36.60;65.00;;;;;;5110937;28;19919;-80
2022/08/29 10:16:32;;;;;;;;;;;36.80;64.60;;;;;;5110740;28;19912;-77
2022/08/29 10:19:16;;;;;;;;;;;36.50;64.60;;;;;;5107551;28;19923;-78
2022/08/29 10:22:01;;;;;;;;;;;36.30;65.10;;;;;;5089353;28;19923;-79
2022/08/29 10:24:39;;;;;;;;;;;36.50;65.40;;;;;;5104254;28;19911;-79
2022/08/29 10:27:22;;;;;;;;;;;36.90;64.90;;;;;;5110822;28;19908;-77
2022/08/29 10:30:03;;;;;;;;;;;37.20;64.30;;;;;;5092417;28;19973;-78
2022/08/29 10:32:52;;;;;;;;;;;37.00;64.30;;;;;;5090208;28;19919;-78
2022/08/29 10:35:18;;;;;;;;;;;37.10;64.50;;;;;;5085613;28;19912;-80
2022/08/29 10:37:58;;;;;;;;;;;37.00;64.60;;;;;;5092693;28;20011;-79
2022/08/29 10:40:41;;;;;;;;;;;36.90;64.90;;;;;;5092505;28;20015;-79
2022/08/29 10:43:12;;;;;;;;;;;37.00;64.90;;;;;;5111455;28;19912;-79
2022/08/29 10:45:47;;;;;;;;;;;37.00;65.20;;;;;;5110960;28;19953;-81
2022/08/29 10:48:24;;;;;;;;;;;37.10;65.20;;;;;;5083643;28;19908;-76
2022/08/29 10:50:57;;;;;;;;;;;36.90;64.90;;;;;;5092817;28;19914;-81
2022/08/29 10:53:26;;;;;;;;;;;36.80;65.50;;;;;;5109571;28;20431;-76
2022/08/29 10:56:08;;;;;;;;;;;36.80;65.10;;;;;;5109268;28;20263;-76
2022/08/29 10:58:42;;;;;;;;;;;36.60;65.40;;;;;;5105542;28;20302;-78
2022/08/29 11:01:26;;;;;;;;;;;36.40;65.60;;;;;;5099068;28;19919;-77
2022/08/29 11:03:52;;;;;;;;;;;36.30;65.90;;;;;;5100270;28;19911;-81
2022/08/29 11:06:25;;;;;;;;;;;36.30;66.00;;;;;;5112269;28;20010;-79
2022/08/29 11:08:58;;;;;;;;;;;36.50;65.90;;;;;;5119986;28;20002;-79
2022/08/29 11:11:25;;;;;;;;;;;36.60;65.80;;;;;;5098456;28;19908;-76
2022/08/29 11:14:03;;;;;;;;;;;36.80;65.90;;;;;;5095720;28;19956;-79
2022/08/29 11:16:37;;;;;;;;;;;37.00;65.40;;;;;;5101602;28;19912;-79
2022/08/29 11:19:19;;;;;;;;;;;36.90;65.40;;;;;;5101772;28;20029;-80
2022/08/29 11:21:51;;;;;;;;;;;36.90;65.60;;;;;;5115553;28;19919;-80
2022/08/29 11:24:18;;;;;;;;;;;37.10;65.40;;;;;;5093833;28;19908;-75
2022/08/29 11:26:43;;;;;;;;;;;37.10;65.30;;;;;;5112796;28;20240;-79
2022/08/29 11:29:12;;;;;;;;;;;36.80;65.50;;;;;;5094460;28;20011;-77
2022/08/29 11:31:40;;;;;;;;;;;36.90;65.90;;;;;;5114883;28;19957;-80
2022/08/29 11:34:16;;;;;;;;;;;37.10;66.00;;;;;;5111276;28;19931;-78
2022/08/29 11:36:48;;;;;;;;;;;37.30;65.70;;;;;;5111343;28;19911;-78
2022/08/29 11:39:26;;;;;;;;;;;37.30;65.60;;;;;;5092078;28;20027;-78
2022/08/29 11:41:55;;;;;;;;;;;37.30;65.60;;;;;;5111424;28;19924;-77
2022/08/29 11:44:20;;;;;;;;;;;37.00;65.50;;;;;;5110624;28;19908;-79
2022/08/29 11:46:48;;;;;;;;;;;36.90;65.90;;;;;;5108855;28;19969;-76
2022/08/29 11:49:32;;;;;;;;;;;37.00;65.50;;;;;;5102009;28;19912;-80
2022/08/29 11:52:07;;;;;;;;;;;37.10;65.30;;;;;;5111192;28;20151;-78
2022/08/29 11:54:33;;;;;;;;;;;36.90;65.00;;;;;;5090067;28;20377;-79
2022/08/29 11:56:58;;;;;;;;;;;36.70;64.90;;;;;;5109550;28;19916;-81
2022/08/29 11:59:43;;;;;;;;;;;36.60;64.90;;;;;;5108545;28;19931;-79
2022/08/29 12:02:09;;;;;;;;;;;36.30;64.90;;;;;;5109016;28;20238;-76
2022/08/29 12:04:53;;;;;;;;;;;35.80;65.30;;;;;;5107346;28;19956;-83
2022/08/29 12:07:21;;;;;;;;;;;35.60;65.70;;;;;;5102013;28;20002;-79
2022/08/29 12:09:52;;;;;;;;;;;35.60;66.00;;;;;;5106542;28;19927;-85
2022/08/29 12:12:34;;;;;;;;;;;35.70;66.20;;;;;;5108997;28;19915;-78
2022/08/29 12:15:00;;;;;;;;;;;35.80;66.00;;;;;;5108602;28;19908;-79
2022/08/29 12:17:26;;;;;;;;;;;35.20;65.80;;;;;;5090732;28;19908;-80
2022/08/29 12:19:53;;;;;;;;;;;34.80;66.30;;;;;;5113349;28;20261;-79
2022/08/29 12:22:37;;;;;;;;;;;34.90;66.30;;;;;;5113389;28;20402;-79
2022/08/29 12:25:21;;;;;;;;;;;34.90;66.30;;;;;;5107340;28;20382;-79
2022/08/29 12:27:56;;;;;;;;;;;34.60;66.20;;;;;;5113201;28;20389;-79
2022/08/29 12:30:22;;;;;;;;;;;34.60;66.50;;;;;;5113528;28;19908;-78
2022/08/29 12:32:50;;;;;;;;;;;34.60;65.90;;;;;;5078383;28;19922;-80
2022/08/29 12:35:37;;;;;;;;;;;34.70;65.90;;;;;;5113716;28;20349;-78
2022/08/29 12:38:03;;;;;;;;;;;34.60;66.20;;;;;;5114344;28;19908;-78
2022/08/29 12:40:47;;;;;;;;;;;34.60;65.70;;;;;;5114436;28;20006;-79
2022/08/29 12:43:25;;;;;;;;;;;34.30;65.60;;;;;;5114248;28;19912;-78
2022/08/29 12:45:51;;;;;;;;;;;34.10;66.10;;;;;;5114284;28;19926;-75
2022/08/29 12:48:19;;;;;;;;;;;33.90;66.20;;;;;;5112343;28;19916;-81
2022/08/29 12:50:47;;;;;;;;;;;33.90;66.60;;;;;;5096740;28;19907;-81
2022/08/29 12:53:22;;;;;;;;;;;33.80;66.50;;;;;;5112877;28;19915;-76
2022/08/29 12:55:52;;;;;;;;;;;33.80;66.60;;;;;;5111201;28;20344;-79
2022/08/29 12:58:29;;;;;;;;;;;34.10;66.30;;;;;;5113929;28;19923;-82
2022/08/29 13:00:55;;;;;;;;;;;34.10;65.60;;;;;;5096072;28;19947;-82
2022/08/29 13:03:21;;;;;;;;;;;34.10;65.40;;;;;;5106547;28;20279;-81
2022/08/29 13:05:47;;;;;;;;;;;34.10;65.20;;;;;;5109805;28;20307;-76
2022/08/29 13:08:14;;;;;;;;;;;34.40;65.00;;;;;;5109156;28;19935;-80
2022/08/29 13:10:41;;;;;;;;;;;34.20;64.90;;;;;;5095946;28;19967;-76
2022/08/29 13:13:09;;;;;;;;;;;33.90;65.30;;;;;;5107722;28;19915;-75
2022/08/29 13:15:35;;;;;;;;;;;33.80;66.40;;;;;;5110556;28;20367;-76
2022/08/29 13:18:01;;;;;;;;;;;33.70;65.20;;;;;;5105997;28;19919;-77
2022/08/29 13:20:42;;;;;;;;;;;33.10;64.80;;;;;;5112984;28;19914;-81
2022/08/29 13:23:10;;;;;;;;;;;32.40;65.10;;;;;;5112818;28;19911;-79
2022/08/29 13:25:48;;;;;;;;;;;32.00;65.40;;;;;;5094086;28;20053;-80
2022/08/29 13:28:15;;;;;;;;;;;31.70;65.70;;;;;;5113661;28;20284;-74
2022/08/29 13:30:41;;;;;;;;;;;31.60;65.70;;;;;;5112179;28;20397;-79
2022/08/29 13:33:07;;;;;;;;;;;31.60;65.50;;;;;;5110746;28;19990;-80
2022/08/29 13:35:32;;;;;;;;;;;31.40;65.00;;;;;;5092040;28;20287;-80
2022/08/29 13:38:28;;;;;;;;;;;30.80;64.80;;;;;;5092429;28;19912;-80
2022/08/29 13:40:55;;;;;;;;;;;30.10;64.90;;;;;;5082744;28;19970;-79
2022/08/29 13:43:32;;;;;;;;;;;29.60;65.10;;;;;;5073582;28;19916;-80
2022/08/29 13:46:02;;;;;;;;;;;29.40;64.90;;;;;;5073757;28;19935;-80
2022/08/29 13:48:28;;;;;;;;;;;29.20;64.90;;;;;;5091436;28;19936;-80
2022/08/29 13:50:53;;;;;;;;;;;29.20;64.80;;;;;;5076562;28;19947;-80
2022/08/29 13:53:19;;;;;;;;;;;29.10;64.40;;;;;;5083722;28;19916;-80
2022/08/29 13:55:45;;;;;;;;;;;28.80;64.40;;;;;;5093640;28;20356;-82
2022/08/29 13:58:11;;;;;;;;;;;28.50;64.40;;;;;;5090626;28;19919;-80
2022/08/29 14:00:37;;;;;;;;;;;28.40;64.20;;;;;;5092957;28;20416;-79
2022/08/29 14:03:04;;;;;;;;;;;28.10;64.00;;;;;;5094390;28;19916;-79
2022/08/29 14:05:30;;;;;;;;;;;27.80;63.80;;;;;;5094028;28;19999;-80
2022/08/29 14:07:56;;;;;;;;;;;27.60;63.80;;;;;;5075801;28;20605;-80
2022/08/29 14:10:22;;;;;;;;;;;27.40;63.90;;;;;;5073437;28;20060;-79
2022/08/29 14:12:47;;;;;;;;;;;27.20;63.80;;;;;;5092998;28;19947;-79
2022/08/29 14:15:16;;;;;;;;;;;27.00;63.80;;;;;;5090562;28;20027;-79
2022/08/29 14:17:46;;;;;;;;;;;26.90;63.90;;;;;;5104877;28;20372;-78
2022/08/29 14:20:13;;;;;;;;;;;26.70;63.80;;;;;;5091638;28;20284;-80
2022/08/29 14:22:38;;;;;;;;;;;26.50;63.80;;;;;;5090913;28;20010;-79
2022/08/29 14:25:05;;;;;;;;;;;26.40;63.70;;;;;;5090962;28;19944;-80